createdAt,value
2023-05-14T00:01:43.597Z,100924.06
2023-05-14T00:04:11.475Z,100918.88
2023-05-14T00:06:39.372Z,100921.44
2023-05-14T00:09:07.150Z,100917.88
2023-05-14T00:11:36.222Z,100919.53
2023-05-14T00:14:04.268Z,100921.25
2023-05-14T00:16:32.354Z,100922.78
2023-05-14T00:19:00.363Z,100922.66
2023-05-14T00:21:28.315Z,100917.41
2023-05-14T00:23:56.396Z,100916.41
2023-05-14T00:26:24.276Z,100912.88
2023-05-14T00:28:53.498Z,100909.31
2023-05-14T00:31:21.301Z,100904.09
2023-05-14T00:33:49.217Z,100903.97
2023-05-14T00:36:17.089Z,100896.84
2023-05-14T00:38:45.092Z,100899.31
2023-05-14T00:41:13.056Z,100899.00
2023-05-14T00:43:41.068Z,100901.31
2023-05-14T00:46:12.394Z,100901.69
2023-05-14T00:48:40.879Z,100893.88
2023-05-14T00:51:08.896Z,100888.53
2023-05-14T00:53:37.416Z,100891.03
2023-05-14T00:56:06.902Z,100887.41
2023-05-14T00:58:35.016Z,100885.53
2023-05-14T01:01:03.326Z,100890.66
2023-05-14T01:03:33.757Z,100889.75
2023-05-14T01:06:14.535Z,100883.59
2023-05-14T01:09:05.884Z,100886.91
2023-05-14T01:11:42.515Z,100888.44
2023-05-14T01:14:21.405Z,100882.34
2023-05-14T01:16:54.893Z,100883.97
2023-05-14T01:19:43.949Z,100880.38
2023-05-14T01:22:14.765Z,100881.13
2023-05-14T01:24:42.552Z,100883.66
2023-05-14T01:27:25.596Z,100882.75
2023-05-14T01:30:18.032Z,100873.94
2023-05-14T01:32:51.751Z,100874.00
2023-05-14T01:35:23.885Z,100868.75
2023-05-14T01:37:56.689Z,100872.09
2023-05-14T01:40:26.106Z,100877.03
2023-05-14T01:42:56.448Z,100875.31
2023-05-14T01:45:24.497Z,100880.44
2023-05-14T01:47:52.848Z,100885.31
2023-05-14T01:50:21.240Z,100886.84
2023-05-14T01:52:51.191Z,100888.28
2023-05-14T01:55:20.913Z,100889.00
2023-05-14T01:57:48.709Z,100883.63
2023-05-14T02:00:17.378Z,100879.72
2023-05-14T02:02:45.183Z,100884.28
2023-05-14T02:05:13.609Z,100883.50
2023-05-14T02:07:41.533Z,100880.88
2023-05-14T02:10:11.240Z,100879.88
2023-05-14T02:12:40.762Z,100883.50
2023-05-14T02:15:11.029Z,100879.06
2023-05-14T02:17:39.098Z,100883.41
2023-05-14T02:20:10.231Z,100884.25
2023-05-14T02:22:38.408Z,100876.47
2023-05-14T02:25:08.184Z,100876.22
2023-05-14T02:27:36.180Z,100868.53
2023-05-14T02:30:07.057Z,100867.56
2023-05-14T02:32:34.957Z,100866.75
2023-05-14T02:35:03.246Z,100863.41
2023-05-14T02:37:31.351Z,100862.47
2023-05-14T02:39:59.332Z,100862.28
2023-05-14T02:42:27.281Z,100868.13
2023-05-14T02:44:55.098Z,100860.91
2023-05-14T02:47:24.484Z,100856.59
2023-05-14T02:49:52.585Z,100868.03
2023-05-14T02:52:21.271Z,100860.91
2023-05-14T02:54:49.170Z,100862.63
2023-05-14T02:57:17.038Z,100867.72
2023-05-14T02:59:44.783Z,100864.28
2023-05-14T03:02:32.680Z,100856.13
2023-05-14T03:05:01.221Z,100862.19
2023-05-14T03:07:29.139Z,100856.22
2023-05-14T03:09:57.233Z,100857.00
2023-05-14T03:12:25.539Z,100844.97
2023-05-14T03:14:53.373Z,100850.16
2023-05-14T03:17:21.281Z,100846.56
2023-05-14T03:19:50.547Z,100853.47
2023-05-14T03:22:18.583Z,100852.59
2023-05-14T03:24:46.419Z,100854.13
2023-05-14T03:27:14.391Z,100851.59
2023-05-14T03:29:42.168Z,100843.72
2023-05-14T03:32:10.139Z,100852.38
2023-05-14T03:34:38.261Z,100844.44
2023-05-14T03:37:07.400Z,100850.22
2023-05-14T03:39:36.092Z,100846.50
2023-05-14T03:42:06.037Z,100848.78
2023-05-14T03:44:34.143Z,100841.16
2023-05-14T03:47:02.000Z,100842.09
2023-05-14T03:49:29.906Z,100837.16
2023-05-14T03:51:59.300Z,100837.22
2023-05-14T03:54:28.563Z,100840.94
2023-05-14T03:56:56.343Z,100842.66
2023-05-14T03:59:24.426Z,100846.31
2023-05-14T04:01:52.244Z,100837.59
2023-05-14T04:04:20.845Z,100837.75
2023-05-14T04:06:48.705Z,100839.69
2023-05-14T04:09:16.647Z,100828.59
2023-05-14T04:11:46.226Z,100833.22
2023-05-14T04:14:14.037Z,100831.69
2023-05-14T04:16:42.340Z,100832.53
2023-05-14T04:19:10.304Z,100837.69
2023-05-14T04:21:38.230Z,100831.91
2023-05-14T04:24:07.157Z,100823.53
2023-05-14T04:26:35.305Z,100836.44
2023-05-14T04:29:04.495Z,100830.47
2023-05-14T04:31:32.333Z,100826.38
2023-05-14T04:34:00.406Z,100826.72
2023-05-14T04:36:28.166Z,100820.91
2023-05-14T04:38:56.516Z,100819.25
2023-05-14T04:41:24.301Z,100825.53
2023-05-14T04:43:56.711Z,100823.00
2023-05-14T04:46:26.572Z,100831.78
2023-05-14T04:48:54.462Z,100832.66
2023-05-14T04:51:22.297Z,100830.09
2023-05-14T04:53:50.240Z,100837.16
2023-05-14T04:56:18.040Z,100827.75
2023-05-14T04:58:45.728Z,100826.81
2023-05-14T05:01:13.699Z,100835.59
2023-05-14T05:03:43.228Z,100827.25
2023-05-14T05:06:11.265Z,100834.47
2023-05-14T05:08:39.795Z,100825.91
2023-05-14T05:11:07.578Z,100828.03
2023-05-14T05:13:35.552Z,100829.31
2023-05-14T05:16:03.758Z,100833.13
2023-05-14T05:18:31.763Z,100831.00
2023-05-14T05:21:00.994Z,100834.09
2023-05-14T05:23:28.935Z,100830.13
2023-05-14T05:25:56.849Z,100826.06
2023-05-14T05:28:24.649Z,100832.34
2023-05-14T05:30:52.577Z,100830.78
2023-05-14T05:33:20.604Z,100834.66
2023-05-14T05:35:49.973Z,100835.72
2023-05-14T05:38:19.157Z,100838.38
2023-05-14T05:40:47.835Z,100826.38
2023-05-14T05:43:16.028Z,100833.31
2023-05-14T05:45:45.906Z,100838.75
2023-05-14T05:48:13.846Z,100845.72
2023-05-14T05:50:42.710Z,100838.78
2023-05-14T05:53:10.639Z,100842.59
2023-05-14T05:55:40.968Z,100834.09
2023-05-14T05:58:08.815Z,100825.47
2023-05-14T06:00:36.826Z,100838.56
2023-05-14T06:03:04.618Z,100830.66
2023-05-14T06:05:32.538Z,100836.16
2023-05-14T06:08:00.393Z,100835.38
2023-05-14T06:10:28.274Z,100832.81
2023-05-14T06:12:57.422Z,100834.59
2023-05-14T06:15:25.321Z,100837.22
2023-05-14T06:17:53.186Z,100843.38
2023-05-14T06:20:21.400Z,100830.25
2023-05-14T06:22:49.519Z,100834.56
2023-05-14T06:25:17.594Z,100839.78
2023-05-14T06:27:45.444Z,100838.06
2023-05-14T06:30:16.019Z,100838.00
2023-05-14T06:32:43.828Z,100835.31
2023-05-14T06:35:11.719Z,100844.88
2023-05-14T06:37:39.512Z,100840.50
2023-05-14T06:40:08.813Z,100839.47
2023-05-14T06:42:36.554Z,100838.56
2023-05-14T06:45:07.540Z,100842.00
2023-05-14T06:47:36.897Z,100840.25
2023-05-14T06:50:05.922Z,100841.09
2023-05-14T06:52:33.935Z,100832.84
2023-05-14T06:55:01.752Z,100829.22
2023-05-14T06:57:29.994Z,100822.69
2023-05-14T06:59:57.741Z,100825.28
2023-05-14T07:02:25.617Z,100819.06
2023-05-14T07:04:54.852Z,100817.31
2023-05-14T07:07:23.034Z,100819.06
2023-05-14T07:09:50.972Z,100822.22
2023-05-14T07:12:18.829Z,100813.63
2023-05-14T07:14:46.812Z,100814.47
2023-05-14T07:17:15.297Z,100817.56
2023-05-14T07:19:43.144Z,100812.13
2023-05-14T07:22:12.462Z,100819.44
2023-05-14T07:24:40.384Z,100817.63
2023-05-14T07:27:08.944Z,100822.38
2023-05-14T07:29:36.762Z,100820.50
2023-05-14T07:32:04.945Z,100822.69
2023-05-14T07:34:32.787Z,100819.56
2023-05-14T07:37:01.243Z,100819.81
2023-05-14T07:39:30.311Z,100821.03
2023-05-14T07:41:58.186Z,100818.88
2023-05-14T07:44:26.050Z,100805.88
2023-05-14T07:46:53.989Z,100806.78
2023-05-14T07:49:21.854Z,100816.38
2023-05-14T07:51:49.818Z,100805.88
2023-05-14T07:54:17.722Z,100805.06
2023-05-14T07:56:46.893Z,100797.78
2023-05-14T07:59:14.773Z,100805.69
2023-05-14T08:01:42.694Z,100808.22
2023-05-14T08:04:15.156Z,100810.44
2023-05-14T08:06:43.102Z,100808.38
2023-05-14T08:09:10.983Z,100799.91
2023-05-14T08:11:39.171Z,100791.88
2023-05-14T08:14:08.350Z,100794.66
2023-05-14T08:16:36.332Z,100796.94
2023-05-14T08:19:04.554Z,100804.94
2023-05-14T08:21:32.789Z,100796.69
2023-05-14T08:24:00.731Z,100806.72
2023-05-14T08:26:28.528Z,100801.66
2023-05-14T08:28:56.294Z,100806.31
2023-05-14T08:31:25.560Z,100805.72
2023-05-14T08:33:53.331Z,100795.25
2023-05-14T08:36:21.208Z,100792.31
2023-05-14T08:38:50.296Z,100795.56
2023-05-14T08:41:19.054Z,100792.56
2023-05-14T08:44:02.239Z,100793.69
2023-05-14T08:46:33.027Z,100786.28
2023-05-14T08:49:14.706Z,100792.09
2023-05-14T08:51:44.444Z,100790.94
2023-05-14T08:54:16.896Z,100777.78
2023-05-14T08:56:50.528Z,100781.44
2023-05-14T08:59:19.900Z,100781.28
2023-05-14T09:01:53.676Z,100777.91
2023-05-14T09:04:23.606Z,100781.38
2023-05-14T09:06:53.839Z,100784.44
2023-05-14T09:09:23.461Z,100774.81
2023-05-14T09:11:52.999Z,100780.19
2023-05-14T09:14:23.096Z,100775.91
2023-05-14T09:16:52.949Z,100772.88
2023-05-14T09:19:21.865Z,100785.03
2023-05-14T09:21:50.498Z,100780.66
2023-05-14T09:24:22.919Z,100780.00
2023-05-14T09:26:52.932Z,100777.25
2023-05-14T09:29:20.989Z,100779.66
2023-05-14T09:31:52.524Z,100771.63
2023-05-14T09:34:26.525Z,100774.13
2023-05-14T09:36:59.165Z,100768.94
2023-05-14T09:39:28.650Z,100766.50
2023-05-14T09:41:56.975Z,100759.59
2023-05-14T09:44:25.627Z,100769.53
2023-05-14T09:46:55.854Z,100762.78
2023-05-14T09:49:23.861Z,100750.94
2023-05-14T09:51:51.984Z,100755.78
2023-05-14T09:54:20.103Z,100749.81
2023-05-14T09:56:47.848Z,100753.31
2023-05-14T09:59:15.670Z,100747.19
2023-05-14T10:01:44.557Z,100743.97
2023-05-14T10:04:14.921Z,100737.59
2023-05-14T10:06:51.204Z,100729.66
2023-05-14T10:09:26.237Z,100720.91
2023-05-14T10:11:59.092Z,100725.22
2023-05-14T10:14:36.061Z,100722.03
2023-05-14T10:17:06.520Z,100724.19
2023-05-14T10:19:40.203Z,100720.31
2023-05-14T10:22:12.679Z,100726.66
2023-05-14T10:24:41.536Z,100718.41
2023-05-14T10:27:10.388Z,100718.88
2023-05-14T10:29:38.565Z,100712.16
2023-05-14T10:32:09.505Z,100709.06
2023-05-14T10:34:41.531Z,100711.47
2023-05-14T10:37:12.204Z,100701.84
2023-05-14T10:39:43.017Z,100698.69
2023-05-14T10:42:13.218Z,100707.22
2023-05-14T10:44:51.080Z,100696.16
2023-05-14T10:47:19.992Z,100700.88
2023-05-14T10:49:49.561Z,100696.16
2023-05-14T10:52:19.613Z,100696.72
2023-05-14T10:54:53.080Z,100694.25
2023-05-14T10:57:22.865Z,100700.97
2023-05-14T10:59:54.917Z,100689.84
2023-05-14T11:02:27.777Z,100692.44
2023-05-14T11:05:00.594Z,100689.66
2023-05-14T11:07:32.402Z,100691.06
2023-05-14T11:10:04.721Z,100688.97
2023-05-14T11:12:33.475Z,100686.56
2023-05-14T11:15:03.896Z,100685.91
2023-05-14T11:17:32.809Z,100688.50
2023-05-14T11:20:02.393Z,100684.75
2023-05-14T11:22:30.376Z,100677.66
2023-05-14T11:24:58.276Z,100671.50
2023-05-14T11:27:26.459Z,100669.06
2023-05-14T11:29:55.827Z,100671.13
2023-05-14T11:32:24.198Z,100658.28
2023-05-14T11:34:52.132Z,100658.09
2023-05-14T11:37:21.404Z,100654.06
2023-05-14T11:39:52.198Z,100654.78
2023-05-14T11:42:22.262Z,100664.94
2023-05-14T11:44:52.018Z,100654.91
2023-05-14T11:47:22.158Z,100654.09
2023-05-14T11:49:50.140Z,100645.53
2023-05-14T11:52:19.411Z,100648.88
2023-05-14T11:54:51.933Z,100648.81
2023-05-14T11:57:21.927Z,100649.63
2023-05-14T11:59:57.729Z,100642.78
2023-05-14T12:02:29.301Z,100640.44
2023-05-14T12:04:57.805Z,100641.47
2023-05-14T12:07:30.133Z,100642.69
2023-05-14T12:10:03.266Z,100634.78
2023-05-14T12:12:36.520Z,100629.50
2023-05-14T12:15:13.291Z,100620.19
2023-05-14T12:17:41.875Z,100619.44
2023-05-14T12:20:12.245Z,100621.16
2023-05-14T12:22:42.583Z,100621.31
2023-05-14T12:25:14.128Z,100617.53
2023-05-14T12:27:45.487Z,100612.91
2023-05-14T12:32:45.974Z,100619.38
2023-05-14T12:35:13.894Z,100613.75
2023-05-14T12:37:42.534Z,100608.97
2023-05-14T12:40:12.613Z,100606.16
2023-05-14T12:42:40.487Z,100614.13
2023-05-14T12:45:09.146Z,100604.03
2023-05-14T12:47:37.734Z,100600.44
2023-05-14T12:50:07.687Z,100594.06
2023-05-14T12:52:39.454Z,100588.88
2023-05-14T12:55:09.876Z,100590.66
2023-05-14T12:57:39.764Z,100594.91
2023-05-14T13:00:14.224Z,100595.63
2023-05-14T13:02:43.636Z,100587.03
2023-05-14T13:05:12.474Z,100591.22
2023-05-14T13:07:41.312Z,100588.56
2023-05-14T13:10:11.445Z,100577.13
2023-05-14T13:12:41.119Z,100576.75
2023-05-14T13:15:11.029Z,100576.72
2023-05-14T13:17:39.063Z,100569.97
2023-05-14T13:20:08.647Z,100571.81
2023-05-14T13:22:36.607Z,100569.03
2023-05-14T13:25:06.008Z,100566.06
2023-05-14T13:27:35.774Z,100572.59
2023-05-14T13:30:06.678Z,100573.09
2023-05-14T13:32:34.942Z,100565.97
2023-05-14T13:35:02.881Z,100564.00
2023-05-14T13:37:30.861Z,100566.41
2023-05-14T13:39:58.737Z,100558.50
2023-05-14T13:42:27.073Z,100554.97
2023-05-14T13:44:56.360Z,100551.97
2023-05-14T13:47:26.336Z,100555.50
2023-05-14T13:49:55.050Z,100544.84
2023-05-14T13:52:23.187Z,100557.31
2023-05-14T13:54:51.114Z,100550.44
2023-05-14T13:57:19.317Z,100545.09
2023-05-14T13:59:47.854Z,100540.13
2023-05-14T14:02:16.017Z,100538.16
2023-05-14T14:04:45.208Z,100537.84
2023-05-14T14:07:13.045Z,100521.41
2023-05-14T14:09:40.882Z,100524.72
2023-05-14T14:12:09.837Z,100510.38
2023-05-14T14:14:37.806Z,100506.50
2023-05-14T14:17:05.681Z,100511.22
2023-05-14T14:19:33.432Z,100509.34
2023-05-14T14:22:02.832Z,100512.47
2023-05-14T14:24:30.616Z,100512.41
2023-05-14T14:26:58.504Z,100503.16
2023-05-14T14:29:26.472Z,100502.28
2023-05-14T14:31:54.358Z,100499.00
2023-05-14T14:34:22.308Z,100503.53
2023-05-14T14:36:50.157Z,100504.19
2023-05-14T14:39:19.596Z,100493.88
2023-05-14T14:41:48.281Z,100495.47
2023-05-14T14:44:16.147Z,100489.88
2023-05-14T14:46:44.110Z,100491.47
2023-05-14T14:49:11.932Z,100478.56
2023-05-14T14:51:40.655Z,100490.59
2023-05-14T14:54:08.530Z,100484.56
2023-05-14T14:56:37.985Z,100484.88
2023-05-14T14:59:05.910Z,100494.56
2023-05-14T15:01:33.891Z,100490.06
2023-05-14T15:04:01.717Z,100490.63
2023-05-14T15:06:29.569Z,100488.25
2023-05-14T15:08:57.291Z,100489.06
2023-05-14T15:11:25.962Z,100491.34
2023-05-14T15:13:55.108Z,100488.34
2023-05-14T15:16:23.114Z,100493.38
2023-05-14T15:18:50.948Z,100489.34
2023-05-14T15:21:18.856Z,100488.72
2023-05-14T15:23:46.895Z,100474.84
2023-05-14T15:26:14.779Z,100477.66
2023-05-14T15:28:42.548Z,100478.25
2023-05-14T15:31:11.790Z,100475.88
2023-05-14T15:33:41.544Z,100473.78
2023-05-14T15:36:09.541Z,100470.50
2023-05-14T15:38:37.343Z,100479.59
2023-05-14T15:41:05.801Z,100477.97
2023-05-14T15:43:33.590Z,100465.75
2023-05-14T15:46:01.597Z,100468.84
2023-05-14T15:48:30.934Z,100462.00
2023-05-14T15:50:59.175Z,100463.63
2023-05-14T15:53:27.159Z,100453.47
2023-05-14T15:55:55.139Z,100468.75
2023-05-14T15:58:22.898Z,100463.59
2023-05-14T16:00:50.748Z,100458.44
2023-05-14T16:03:18.755Z,100459.75
2023-05-14T16:05:48.510Z,100451.97
2023-05-14T16:08:16.369Z,100456.94
2023-05-14T16:10:44.149Z,100456.91
2023-05-14T16:13:11.863Z,100460.16
2023-05-14T16:15:40.123Z,100462.09
2023-05-14T16:18:08.140Z,100460.75
2023-05-14T16:20:36.137Z,100463.09
2023-05-14T16:23:05.319Z,100464.06
2023-05-14T16:25:33.261Z,100452.22
2023-05-14T16:28:01.127Z,100453.19
2023-05-14T16:30:28.950Z,100462.81
2023-05-14T16:32:56.867Z,100458.88
2023-05-14T16:35:24.752Z,100463.09
2023-05-14T16:37:52.715Z,100470.28
2023-05-14T16:40:23.302Z,100457.13
2023-05-14T16:42:51.682Z,100466.56
2023-05-14T16:45:19.596Z,100460.66
2023-05-14T16:47:47.612Z,100455.00
2023-05-14T16:50:15.623Z,100459.50
2023-05-14T16:52:43.463Z,100464.38
2023-05-14T16:55:11.398Z,100462.53
2023-05-14T16:57:40.677Z,100462.38
2023-05-14T17:00:10.658Z,100471.56
2023-05-14T17:02:38.932Z,100462.44
2023-05-14T17:05:08.536Z,100469.16
2023-05-14T17:07:38.076Z,100468.56
2023-05-14T17:10:07.682Z,100460.78
2023-05-14T17:12:36.018Z,100467.75
2023-05-14T17:15:07.757Z,100471.72
2023-05-14T17:17:36.023Z,100467.41
2023-05-14T17:20:08.475Z,100461.56
2023-05-14T17:22:36.644Z,100466.28
2023-05-14T17:25:05.545Z,100472.28
2023-05-14T17:27:33.585Z,100465.16
2023-05-14T17:30:01.409Z,100463.50
2023-05-14T17:32:31.202Z,100467.91
2023-05-14T17:34:59.334Z,100467.06
2023-05-14T17:37:27.422Z,100464.28
2023-05-14T17:39:55.379Z,100477.81
2023-05-14T17:42:23.264Z,100480.59
2023-05-14T17:44:50.973Z,100470.09
2023-05-14T17:47:20.499Z,100472.19
2023-05-14T17:49:50.810Z,100472.00
2023-05-14T17:52:19.192Z,100471.97
2023-05-14T17:54:47.003Z,100475.25
2023-05-14T17:57:15.044Z,100478.19
2023-05-14T17:59:42.885Z,100478.22
2023-05-14T18:02:10.850Z,100483.66
2023-05-14T18:04:38.627Z,100474.00
2023-05-14T18:07:08.408Z,100491.69
2023-05-14T18:09:36.351Z,100492.97
2023-05-14T18:12:04.785Z,100492.19
2023-05-14T18:14:32.561Z,100486.03
2023-05-14T18:17:00.524Z,100484.56
2023-05-14T18:19:28.285Z,100483.03
2023-05-14T18:21:56.170Z,100487.59
2023-05-14T18:24:26.105Z,100496.41
2023-05-14T18:26:54.613Z,100491.34
2023-05-14T18:29:22.459Z,100491.47
2023-05-14T18:31:50.331Z,100484.72
2023-05-14T18:34:18.084Z,100492.75
2023-05-14T18:36:46.033Z,100483.25
2023-05-14T18:39:13.828Z,100481.66
2023-05-14T18:41:42.987Z,100486.25
2023-05-14T18:44:10.757Z,100483.75
2023-05-14T18:46:38.765Z,100492.81
2023-05-14T18:49:06.499Z,100485.03
2023-05-14T18:51:34.272Z,100485.19
2023-05-14T18:54:02.054Z,100487.97
2023-05-14T18:56:30.172Z,100486.25
2023-05-14T18:58:59.392Z,100486.31
2023-05-14T19:01:28.023Z,100489.91
2023-05-14T19:03:56.188Z,100486.59
2023-05-14T19:06:24.276Z,100493.72
2023-05-14T19:08:53.501Z,100488.50
2023-05-14T19:11:21.920Z,100492.09
2023-05-14T19:13:49.989Z,100493.94
2023-05-14T19:16:19.310Z,100492.41
2023-05-14T19:18:47.149Z,100493.53
2023-05-14T19:21:15.341Z,100492.88
2023-05-14T19:23:43.524Z,100494.69
2023-05-14T19:26:11.393Z,100496.34
2023-05-14T19:28:39.507Z,100492.88
2023-05-14T19:31:07.469Z,100496.38
2023-05-14T19:33:36.636Z,100499.88
2023-05-14T19:36:05.518Z,100498.16
2023-05-14T19:38:34.074Z,100498.28
2023-05-14T19:41:01.888Z,100502.72
2023-05-14T19:43:29.883Z,100501.00
2023-05-14T19:48:25.648Z,100505.50
2023-05-14T19:50:54.910Z,100507.28
2023-05-14T19:53:29.360Z,100509.06
2023-05-14T19:55:57.544Z,100510.78
2023-05-14T19:58:26.452Z,100506.44
2023-05-14T20:00:56.666Z,100503.81
2023-05-14T20:03:27.560Z,100508.25
2023-05-14T20:05:56.894Z,100503.97
2023-05-14T20:08:24.998Z,100505.69
2023-05-14T20:10:53.123Z,100497.78
2023-05-14T20:13:23.242Z,100499.50
2023-05-14T20:15:53.285Z,100502.16
2023-05-14T20:18:21.026Z,100498.63
2023-05-14T20:20:49.046Z,100500.44
2023-05-14T20:23:18.273Z,100497.81
2023-05-14T20:25:46.476Z,100490.00
2023-05-14T20:28:14.233Z,100498.81
2023-05-14T20:30:42.444Z,100498.81
2023-05-14T20:33:10.484Z,100498.84
2023-05-14T20:35:38.370Z,100504.09
2023-05-14T20:38:06.553Z,100497.16
2023-05-14T20:40:36.912Z,100497.19
2023-05-14T20:43:04.804Z,100493.72
2023-05-14T20:45:32.791Z,100498.94
2023-05-14T20:48:00.740Z,100492.00
2023-05-14T20:50:28.823Z,100492.88
2023-05-14T20:52:56.685Z,100492.03
2023-05-14T20:55:24.724Z,100492.06
2023-05-14T20:57:54.062Z,100488.63
2023-05-14T21:00:21.886Z,100488.66
2023-05-14T21:02:49.960Z,100481.69
2023-05-14T21:05:18.434Z,100486.09
2023-05-14T21:07:46.337Z,100479.97
2023-05-14T21:10:14.206Z,100479.97
2023-05-14T21:12:42.838Z,100475.63
2023-05-14T21:15:13.363Z,100476.50
2023-05-14T21:17:41.352Z,100474.78
2023-05-14T21:20:13.327Z,100473.88
2023-05-14T21:22:41.117Z,100473.91
2023-05-14T21:25:09.833Z,100473.00
2023-05-14T21:27:37.828Z,100473.03
2023-05-14T21:30:07.598Z,100468.69
2023-05-14T21:32:36.869Z,100473.03
2023-05-14T21:35:05.737Z,100463.44
2023-05-14T21:37:33.707Z,100468.66
2023-05-14T21:40:01.556Z,100467.78
2023-05-14T21:42:29.482Z,100474.63
2023-05-14T21:44:57.234Z,100465.91
2023-05-14T21:47:25.202Z,100482.53
2023-05-14T21:49:54.387Z,100470.38
2023-05-14T21:52:22.137Z,100463.41
2023-05-14T21:54:49.921Z,100457.28
2023-05-14T21:57:17.909Z,100457.31
2023-05-14T21:59:45.642Z,100453.84
2023-05-14T22:02:13.536Z,100457.28
2023-05-14T22:04:41.443Z,100446.00
2023-05-14T22:07:10.740Z,100452.94
2023-05-14T22:09:38.480Z,100443.34
2023-05-14T22:12:07.732Z,100447.72
2023-05-14T22:14:35.750Z,100447.69
2023-05-14T22:17:04.608Z,100442.44
2023-05-14T22:19:33.034Z,100434.59
2023-05-14T22:22:00.946Z,100441.59
2023-05-14T22:24:30.114Z,100438.94
2023-05-14T22:26:57.961Z,100439.81
2023-05-14T22:29:25.939Z,100446.78
2023-05-14T22:31:53.809Z,100442.44
2023-05-14T22:34:21.727Z,100445.03
2023-05-14T22:36:49.616Z,100446.72
2023-05-14T22:39:17.438Z,100441.44
2023-05-14T22:41:46.695Z,100440.50
2023-05-14T22:44:14.568Z,100435.28
2023-05-14T22:46:42.715Z,100430.97
2023-05-14T22:49:10.574Z,100434.47
2023-05-14T22:51:38.630Z,100431.84
2023-05-14T22:54:06.837Z,100437.91
2023-05-14T22:56:35.495Z,100428.31
2023-05-14T22:59:04.925Z,100430.84
2023-05-14T23:01:33.164Z,100428.25
2023-05-14T23:04:01.047Z,100423.00
2023-05-14T23:06:30.303Z,100422.16
2023-05-14T23:08:58.242Z,100417.81
2023-05-14T23:11:26.975Z,100419.53
2023-05-14T23:13:54.793Z,100425.63
2023-05-14T23:16:24.401Z,100417.84
2023-05-14T23:18:52.793Z,100425.66
2023-05-14T23:21:20.813Z,100412.59
2023-05-14T23:23:48.642Z,100413.50
2023-05-14T23:26:16.395Z,100415.13
2023-05-14T23:28:44.270Z,100410.63
2023-05-14T23:31:12.047Z,100412.41
2023-05-14T23:33:41.395Z,100408.94
2023-05-14T23:36:10.057Z,100409.81
2023-05-14T23:38:38.148Z,100409.81
2023-05-14T23:41:06.031Z,100406.31
2023-05-14T23:43:33.902Z,100406.28
2023-05-14T23:46:02.581Z,100396.63
2023-05-14T23:48:31.103Z,100400.03
2023-05-14T23:51:00.521Z,100392.09
2023-05-14T23:53:28.282Z,100384.31
2023-05-14T23:55:56.451Z,100386.09
2023-05-14T23:58:24.605Z,100393.81
